sensor_id;sensor_type;location;lat;lon;timestamp;P1;durP1;ratioP1;P2;durP2;ratioP2
20627;SDS011;10473;42.734;24.258;2023-04-01T00:01:35;3.47;;;1.63;;
20627;SDS011;10473;42.734;24.258;2023-04-01T00:04:04;8.47;;;4.77;;
20627;SDS011;10473;42.734;24.258;2023-04-01T00:06:31;6.53;;;3.03;;
20627;SDS011;10473;42.734;24.258;2023-04-01T00:08:59;2.43;;;1.50;;
20627;SDS011;10473;42.734;24.258;2023-04-01T00:11:26;4.07;;;2.70;;
20627;SDS011;10473;42.734;24.258;2023-04-01T00:13:54;4.37;;;2.57;;
20627;SDS011;10473;42.734;24.258;2023-04-01T00:16:22;4.37;;;1.80;;
20627;SDS011;10473;42.734;24.258;2023-04-01T00:18:50;2.77;;;1.47;;
20627;SDS011;10473;42.734;24.258;2023-04-01T00:21:20;1.20;;;1.10;;
20627;SDS011;10473;42.734;24.258;2023-04-01T00:23:48;2.13;;;1.67;;
20627;SDS011;10473;42.734;24.258;2023-04-01T00:26:16;1.63;;;1.40;;
20627;SDS011;10473;42.734;24.258;2023-04-01T00:28:46;2.57;;;1.60;;
20627;SDS011;10473;42.734;24.258;2023-04-01T00:31:15;2.63;;;1.43;;
20627;SDS011;10473;42.734;24.258;2023-04-01T00:33:43;3.50;;;1.67;;
20627;SDS011;10473;42.734;24.258;2023-04-01T00:36:11;3.93;;;1.43;;
20627;SDS011;10473;42.734;24.258;2023-04-01T00:38:41;1.93;;;1.60;;
20627;SDS011;10473;42.734;24.258;2023-04-01T00:41:10;4.40;;;2.10;;
20627;SDS011;10473;42.734;24.258;2023-04-01T00:43:40;2.07;;;1.73;;
20627;SDS011;10473;42.734;24.258;2023-04-01T00:46:08;4.13;;;1.53;;
20627;SDS011;10473;42.734;24.258;2023-04-01T00:48:36;3.00;;;1.50;;
20627;SDS011;10473;42.734;24.258;2023-04-01T00:51:07;1.10;;;0.90;;
20627;SDS011;10473;42.734;24.258;2023-04-01T00:53:38;1.00;;;0.77;;
20627;SDS011;10473;42.734;24.258;2023-04-01T00:56:12;0.70;;;0.70;;
20627;SDS011;10473;42.734;24.258;2023-04-01T00:58:43;1.83;;;1.33;;
20627;SDS011;10473;42.734;24.258;2023-04-01T01:01:15;1.97;;;1.33;;
20627;SDS011;10473;42.734;24.258;2023-04-01T01:03:43;2.93;;;1.10;;
20627;SDS011;10473;42.734;24.258;2023-04-01T01:06:14;0.57;;;0.40;;
20627;SDS011;10473;42.734;24.258;2023-04-01T01:09:03;3.53;;;1.17;;
20627;SDS011;10473;42.734;24.258;2023-04-01T01:11:42;2.17;;;1.07;;
20627;SDS011;10473;42.734;24.258;2023-04-01T01:14:19;1.60;;;1.20;;
20627;SDS011;10473;42.734;24.258;2023-04-01T01:17:02;1.20;;;0.90;;
20627;SDS011;10473;42.734;24.258;2023-04-01T01:19:45;2.97;;;1.20;;
20627;SDS011;10473;42.734;24.258;2023-04-01T01:22:31;2.13;;;1.37;;
20627;SDS011;10473;42.734;24.258;2023-04-01T01:25:25;1.57;;;0.93;;
20627;SDS011;10473;42.734;24.258;2023-04-01T01:28:03;7.57;;;1.50;;
20627;SDS011;10473;42.734;24.258;2023-04-01T01:30:52;3.73;;;2.50;;
20627;SDS011;10473;42.734;24.258;2023-04-01T01:33:29;5.07;;;2.10;;
20627;SDS011;10473;42.734;24.258;2023-04-01T01:36:15;3.40;;;1.53;;
20627;SDS011;10473;42.734;24.258;2023-04-01T01:38:47;2.77;;;1.67;;
20627;SDS011;10473;42.734;24.258;2023-04-01T01:41:17;2.97;;;1.27;;
20627;SDS011;10473;42.734;24.258;2023-04-01T01:43:48;3.10;;;1.00;;
20627;SDS011;10473;42.734;24.258;2023-04-01T01:46:19;2.00;;;0.97;;
20627;SDS011;10473;42.734;24.258;2023-04-01T01:48:49;4.83;;;1.10;;
20627;SDS011;10473;42.734;24.258;2023-04-01T01:51:21;1.60;;;1.23;;
20627;SDS011;10473;42.734;24.258;2023-04-01T01:53:50;1.90;;;0.90;;
20627;SDS011;10473;42.734;24.258;2023-04-01T01:56:21;1.17;;;1.07;;
20627;SDS011;10473;42.734;24.258;2023-04-01T01:58:54;0.63;;;0.60;;
20627;SDS011;10473;42.734;24.258;2023-04-01T02:01:26;0.87;;;0.83;;
20627;SDS011;10473;42.734;24.258;2023-04-01T02:04:08;1.03;;;0.80;;
20627;SDS011;10473;42.734;24.258;2023-04-01T02:06:41;2.63;;;0.93;;
20627;SDS011;10473;42.734;24.258;2023-04-01T02:09:12;0.80;;;0.80;;
20627;SDS011;10473;42.734;24.258;2023-04-01T02:11:41;0.63;;;0.63;;
20627;SDS011;10473;42.734;24.258;2023-04-01T02:14:13;1.33;;;1.23;;
20627;SDS011;10473;42.734;24.258;2023-04-01T02:16:45;0.70;;;0.60;;
20627;SDS011;10473;42.734;24.258;2023-04-01T02:19:18;1.50;;;0.90;;
20627;SDS011;10473;42.734;24.258;2023-04-01T02:21:53;1.73;;;1.53;;
20627;SDS011;10473;42.734;24.258;2023-04-01T02:24:26;4.70;;;1.23;;
20627;SDS011;10473;42.734;24.258;2023-04-01T02:26:59;2.20;;;1.10;;
20627;SDS011;10473;42.734;24.258;2023-04-01T02:29:27;4.43;;;1.20;;
20627;SDS011;10473;42.734;24.258;2023-04-01T02:31:55;1.20;;;0.90;;
20627;SDS011;10473;42.734;24.258;2023-04-01T02:34:23;2.90;;;1.37;;
20627;SDS011;10473;42.734;24.258;2023-04-01T02:36:53;1.40;;;0.90;;
20627;SDS011;10473;42.734;24.258;2023-04-01T02:39:22;1.73;;;1.20;;
20627;SDS011;10473;42.734;24.258;2023-04-01T02:41:51;2.97;;;1.40;;
20627;SDS011;10473;42.734;24.258;2023-04-01T02:44:44;1.57;;;1.23;;
20627;SDS011;10473;42.734;24.258;2023-04-01T02:47:13;2.10;;;1.50;;
20627;SDS011;10473;42.734;24.258;2023-04-01T02:49:41;1.83;;;1.40;;
20627;SDS011;10473;42.734;24.258;2023-04-01T02:52:10;3.30;;;1.07;;
20627;SDS011;10473;42.734;24.258;2023-04-01T02:54:38;1.27;;;1.17;;
20627;SDS011;10473;42.734;24.258;2023-04-01T02:57:09;2.10;;;0.77;;
20627;SDS011;10473;42.734;24.258;2023-04-01T02:59:37;2.63;;;1.00;;
20627;SDS011;10473;42.734;24.258;2023-04-01T03:02:05;0.60;;;0.60;;
20627;SDS011;10473;42.734;24.258;2023-04-01T03:04:33;2.97;;;2.20;;
20627;SDS011;10473;42.734;24.258;2023-04-01T03:07:01;5.03;;;2.00;;
20627;SDS011;10473;42.734;24.258;2023-04-01T03:09:31;4.13;;;2.50;;
20627;SDS011;10473;42.734;24.258;2023-04-01T03:11:59;5.27;;;2.20;;
20627;SDS011;10473;42.734;24.258;2023-04-01T03:14:28;5.23;;;2.30;;
20627;SDS011;10473;42.734;24.258;2023-04-01T03:16:56;4.83;;;2.07;;
20627;SDS011;10473;42.734;24.258;2023-04-01T03:19:24;3.83;;;2.03;;
20627;SDS011;10473;42.734;24.258;2023-04-01T03:21:51;3.40;;;2.17;;
20627;SDS011;10473;42.734;24.258;2023-04-01T03:24:19;2.17;;;1.57;;
20627;SDS011;10473;42.734;24.258;2023-04-01T03:26:48;1.90;;;1.00;;
20627;SDS011;10473;42.734;24.258;2023-04-01T03:29:18;2.37;;;0.87;;
20627;SDS011;10473;42.734;24.258;2023-04-01T03:31:46;2.80;;;1.37;;
20627;SDS011;10473;42.734;24.258;2023-04-01T03:34:14;4.47;;;1.43;;
20627;SDS011;10473;42.734;24.258;2023-04-01T03:36:42;3.97;;;1.77;;
20627;SDS011;10473;42.734;24.258;2023-04-01T03:39:09;3.70;;;2.57;;
20627;SDS011;10473;42.734;24.258;2023-04-01T03:41:41;7.23;;;4.17;;
20627;SDS011;10473;42.734;24.258;2023-04-01T03:44:10;4.70;;;2.80;;
20627;SDS011;10473;42.734;24.258;2023-04-01T03:46:38;4.23;;;2.50;;
20627;SDS011;10473;42.734;24.258;2023-04-01T03:49:06;2.93;;;2.07;;
20627;SDS011;10473;42.734;24.258;2023-04-01T03:51:37;3.37;;;2.10;;
20627;SDS011;10473;42.734;24.258;2023-04-01T03:54:05;4.53;;;2.43;;
20627;SDS011;10473;42.734;24.258;2023-04-01T03:56:33;5.37;;;2.30;;
20627;SDS011;10473;42.734;24.258;2023-04-01T03:59:01;5.43;;;3.10;;
20627;SDS011;10473;42.734;24.258;2023-04-01T04:01:31;5.43;;;3.10;;
20627;SDS011;10473;42.734;24.258;2023-04-01T04:03:59;4.50;;;2.67;;
20627;SDS011;10473;42.734;24.258;2023-04-01T04:06:27;4.27;;;2.90;;
20627;SDS011;10473;42.734;24.258;2023-04-01T04:08:55;3.40;;;2.20;;
20627;SDS011;10473;42.734;24.258;2023-04-01T04:11:23;3.73;;;3.03;;
20627;SDS011;10473;42.734;24.258;2023-04-01T04:13:52;6.47;;;3.00;;
20627;SDS011;10473;42.734;24.258;2023-04-01T04:16:20;8.73;;;3.70;;
20627;SDS011;10473;42.734;24.258;2023-04-01T04:18:55;7.60;;;4.50;;
20627;SDS011;10473;42.734;24.258;2023-04-01T04:21:23;8.73;;;4.07;;
20627;SDS011;10473;42.734;24.258;2023-04-01T04:23:51;3.37;;;1.93;;
20627;SDS011;10473;42.734;24.258;2023-04-01T04:26:20;5.13;;;2.83;;
20627;SDS011;10473;42.734;24.258;2023-04-01T04:28:58;6.23;;;3.27;;
20627;SDS011;10473;42.734;24.258;2023-04-01T04:31:27;6.83;;;3.63;;
20627;SDS011;10473;42.734;24.258;2023-04-01T04:33:59;5.23;;;2.97;;
20627;SDS011;10473;42.734;24.258;2023-04-01T04:36:29;3.87;;;2.73;;
20627;SDS011;10473;42.734;24.258;2023-04-01T04:38:57;6.33;;;4.07;;
20627;SDS011;10473;42.734;24.258;2023-04-01T04:41:28;6.20;;;3.80;;
20627;SDS011;10473;42.734;24.258;2023-04-01T04:43:56;10.80;;;5.57;;
20627;SDS011;10473;42.734;24.258;2023-04-01T04:46:24;13.70;;;6.13;;
20627;SDS011;10473;42.734;24.258;2023-04-01T04:49:04;6.10;;;3.13;;
20627;SDS011;10473;42.734;24.258;2023-04-01T04:51:31;6.17;;;3.67;;
20627;SDS011;10473;42.734;24.258;2023-04-01T04:54:01;12.30;;;6.00;;
20627;SDS011;10473;42.734;24.258;2023-04-01T04:56:46;11.03;;;5.27;;
20627;SDS011;10473;42.734;24.258;2023-04-01T04:59:15;9.30;;;5.70;;
20627;SDS011;10473;42.734;24.258;2023-04-01T05:01:49;4.93;;;4.17;;
20627;SDS011;10473;42.734;24.258;2023-04-01T05:04:18;6.10;;;3.77;;
20627;SDS011;10473;42.734;24.258;2023-04-01T05:06:46;9.30;;;5.30;;
20627;SDS011;10473;42.734;24.258;2023-04-01T05:09:14;15.73;;;8.50;;
20627;SDS011;10473;42.734;24.258;2023-04-01T05:11:42;12.50;;;6.90;;
20627;SDS011;10473;42.734;24.258;2023-04-01T05:14:13;18.13;;;10.90;;
20627;SDS011;10473;42.734;24.258;2023-04-01T05:16:46;12.43;;;7.50;;
20627;SDS011;10473;42.734;24.258;2023-04-01T05:19:15;5.73;;;3.60;;
20627;SDS011;10473;42.734;24.258;2023-04-01T05:21:44;8.73;;;5.17;;
20627;SDS011;10473;42.734;24.258;2023-04-01T05:24:11;15.63;;;7.63;;
20627;SDS011;10473;42.734;24.258;2023-04-01T05:26:41;16.53;;;10.93;;
20627;SDS011;10473;42.734;24.258;2023-04-01T05:29:09;18.13;;;12.67;;
20627;SDS011;10473;42.734;24.258;2023-04-01T05:31:38;13.70;;;10.47;;
20627;SDS011;10473;42.734;24.258;2023-04-01T05:34:07;14.90;;;8.67;;
20627;SDS011;10473;42.734;24.258;2023-04-01T05:36:35;16.27;;;8.97;;
20627;SDS011;10473;42.734;24.258;2023-04-01T05:39:04;18.70;;;9.40;;
20627;SDS011;10473;42.734;24.258;2023-04-01T05:41:33;16.37;;;8.80;;
20627;SDS011;10473;42.734;24.258;2023-04-01T05:44:02;10.80;;;7.47;;
20627;SDS011;10473;42.734;24.258;2023-04-01T05:46:39;13.10;;;7.50;;
20627;SDS011;10473;42.734;24.258;2023-04-01T05:49:20;13.87;;;8.30;;
20627;SDS011;10473;42.734;24.258;2023-04-01T05:51:49;10.33;;;6.77;;
20627;SDS011;10473;42.734;24.258;2023-04-01T05:54:19;7.77;;;5.67;;
20627;SDS011;10473;42.734;24.258;2023-04-01T05:56:49;8.23;;;5.37;;
20627;SDS011;10473;42.734;24.258;2023-04-01T05:59:18;5.27;;;3.97;;
20627;SDS011;10473;42.734;24.258;2023-04-01T06:01:45;15.60;;;8.40;;
20627;SDS011;10473;42.734;24.258;2023-04-01T06:04:17;17.77;;;9.70;;
20627;SDS011;10473;42.734;24.258;2023-04-01T06:06:45;17.07;;;7.33;;
20627;SDS011;10473;42.734;24.258;2023-04-01T06:09:43;7.77;;;4.40;;
20627;SDS011;10473;42.734;24.258;2023-04-01T06:12:17;9.17;;;4.67;;
20627;SDS011;10473;42.734;24.258;2023-04-01T06:15:06;11.70;;;7.13;;
20627;SDS011;10473;42.734;24.258;2023-04-01T06:20:50;9.30;;;4.03;;
20627;SDS011;10473;42.734;24.258;2023-04-01T06:23:33;8.47;;;4.07;;
20627;SDS011;10473;42.734;24.258;2023-04-01T06:26:18;5.27;;;2.40;;
20627;SDS011;10473;42.734;24.258;2023-04-01T06:29:10;5.03;;;2.60;;
20627;SDS011;10473;42.734;24.258;2023-04-01T06:32:11;6.50;;;3.57;;
20627;SDS011;10473;42.734;24.258;2023-04-01T06:35:02;4.37;;;2.40;;
20627;SDS011;10473;42.734;24.258;2023-04-01T06:38:04;4.87;;;2.60;;
20627;SDS011;10473;42.734;24.258;2023-04-01T06:43:47;2.47;;;2.20;;
20627;SDS011;10473;42.734;24.258;2023-04-01T06:46:44;2.87;;;2.33;;
20627;SDS011;10473;42.734;24.258;2023-04-01T06:49:41;2.63;;;2.30;;
20627;SDS011;10473;42.734;24.258;2023-04-01T06:52:45;4.13;;;1.70;;
20627;SDS011;10473;42.734;24.258;2023-04-01T06:55:34;2.23;;;1.97;;
20627;SDS011;10473;42.734;24.258;2023-04-01T06:58:20;5.33;;;2.93;;
20627;SDS011;10473;42.734;24.258;2023-04-01T07:00:52;3.43;;;2.07;;
20627;SDS011;10473;42.734;24.258;2023-04-01T07:03:29;1.73;;;1.63;;
20627;SDS011;10473;42.734;24.258;2023-04-01T07:06:02;1.90;;;1.53;;
20627;SDS011;10473;42.734;24.258;2023-04-01T07:08:34;2.07;;;1.40;;
20627;SDS011;10473;42.734;24.258;2023-04-01T07:11:22;2.97;;;1.73;;
20627;SDS011;10473;42.734;24.258;2023-04-01T07:14:28;4.40;;;2.67;;
20627;SDS011;10473;42.734;24.258;2023-04-01T07:17:04;1.93;;;1.57;;
20627;SDS011;10473;42.734;24.258;2023-04-01T07:19:39;1.23;;;0.93;;
20627;SDS011;10473;42.734;24.258;2023-04-01T07:22:39;4.20;;;1.43;;
20627;SDS011;10473;42.734;24.258;2023-04-01T07:25:37;1.93;;;1.00;;
20627;SDS011;10473;42.734;24.258;2023-04-01T07:28:45;1.17;;;0.80;;
20627;SDS011;10473;42.734;24.258;2023-04-01T07:31:39;2.00;;;1.33;;
20627;SDS011;10473;42.734;24.258;2023-04-01T07:34:25;4.57;;;1.93;;
20627;SDS011;10473;42.734;24.258;2023-04-01T07:36:56;2.17;;;1.30;;
20627;SDS011;10473;42.734;24.258;2023-04-01T07:39:36;2.10;;;1.00;;
20627;SDS011;10473;42.734;24.258;2023-04-01T07:42:21;0.97;;;0.87;;
20627;SDS011;10473;42.734;24.258;2023-04-01T07:44:59;3.90;;;1.57;;
20627;SDS011;10473;42.734;24.258;2023-04-01T07:47:34;1.63;;;0.87;;
20627;SDS011;10473;42.734;24.258;2023-04-01T07:50:34;2.13;;;1.30;;
20627;SDS011;10473;42.734;24.258;2023-04-01T07:53:09;2.17;;;0.93;;
20627;SDS011;10473;42.734;24.258;2023-04-01T07:55:50;2.77;;;1.30;;
20627;SDS011;10473;42.734;24.258;2023-04-01T07:58:27;1.83;;;1.27;;
20627;SDS011;10473;42.734;24.258;2023-04-01T08:01:06;5.60;;;1.23;;
20627;SDS011;10473;42.734;24.258;2023-04-01T08:03:53;1.00;;;0.80;;
20627;SDS011;10473;42.734;24.258;2023-04-01T08:06:40;2.00;;;1.07;;
20627;SDS011;10473;42.734;24.258;2023-04-01T08:09:14;1.57;;;1.40;;
20627;SDS011;10473;42.734;24.258;2023-04-01T08:12:04;1.20;;;0.90;;
20627;SDS011;10473;42.734;24.258;2023-04-01T08:15:11;2.37;;;1.37;;
20627;SDS011;10473;42.734;24.258;2023-04-01T08:18:11;1.70;;;1.07;;
20627;SDS011;10473;42.734;24.258;2023-04-01T08:20:50;0.87;;;0.87;;
20627;SDS011;10473;42.734;24.258;2023-04-01T08:23:24;2.07;;;0.70;;
20627;SDS011;10473;42.734;24.258;2023-04-01T08:25:58;1.03;;;0.80;;
20627;SDS011;10473;42.734;24.258;2023-04-01T08:28:34;0.80;;;0.80;;
20627;SDS011;10473;42.734;24.258;2023-04-01T08:31:11;0.80;;;0.53;;
20627;SDS011;10473;42.734;24.258;2023-04-01T08:33:44;0.60;;;0.50;;
20627;SDS011;10473;42.734;24.258;2023-04-01T08:36:15;1.20;;;0.60;;
20627;SDS011;10473;42.734;24.258;2023-04-01T08:38:55;0.73;;;0.57;;
20627;SDS011;10473;42.734;24.258;2023-04-01T08:44:56;1.87;;;1.10;;
20627;SDS011;10473;42.734;24.258;2023-04-01T08:51:11;1.70;;;0.93;;
20627;SDS011;10473;42.734;24.258;2023-04-01T08:54:11;7.17;;;1.43;;
20627;SDS011;10473;42.734;24.258;2023-04-01T08:56:58;2.70;;;1.07;;
20627;SDS011;10473;42.734;24.258;2023-04-01T08:59:39;2.67;;;1.10;;
20627;SDS011;10473;42.734;24.258;2023-04-01T09:02:50;0.90;;;0.87;;
20627;SDS011;10473;42.734;24.258;2023-04-01T09:05:37;1.37;;;1.10;;
20627;SDS011;10473;42.734;24.258;2023-04-01T09:08:20;0.73;;;0.73;;
20627;SDS011;10473;42.734;24.258;2023-04-01T09:11:07;1.90;;;0.93;;
20627;SDS011;10473;42.734;24.258;2023-04-01T09:14:16;1.63;;;1.20;;
20627;SDS011;10473;42.734;24.258;2023-04-01T09:17:30;1.53;;;0.83;;
20627;SDS011;10473;42.734;24.258;2023-04-01T09:23:29;1.87;;;1.00;;
20627;SDS011;10473;42.734;24.258;2023-04-01T09:29:10;1.60;;;1.23;;
20627;SDS011;10473;42.734;24.258;2023-04-01T09:31:59;1.20;;;0.83;;
20627;SDS011;10473;42.734;24.258;2023-04-01T09:35:10;1.30;;;1.10;;
20627;SDS011;10473;42.734;24.258;2023-04-01T09:37:52;1.80;;;1.27;;
20627;SDS011;10473;42.734;24.258;2023-04-01T09:40:30;0.93;;;0.83;;
20627;SDS011;10473;42.734;24.258;2023-04-01T09:43:12;1.17;;;0.87;;
20627;SDS011;10473;42.734;24.258;2023-04-01T09:45:53;1.30;;;0.83;;
20627;SDS011;10473;42.734;24.258;2023-04-01T09:48:59;1.30;;;0.57;;
20627;SDS011;10473;42.734;24.258;2023-04-01T09:51:44;1.83;;;0.77;;
20627;SDS011;10473;42.734;24.258;2023-04-01T09:54:26;1.53;;;0.73;;
20627;SDS011;10473;42.734;24.258;2023-04-01T09:57:16;3.73;;;2.93;;
20627;SDS011;10473;42.734;24.258;2023-04-01T10:06:33;3.40;;;1.33;;
20627;SDS011;10473;42.734;24.258;2023-04-01T10:12:30;3.30;;;1.90;;
20627;SDS011;10473;42.734;24.258;2023-04-01T10:18:37;3.27;;;1.63;;
20627;SDS011;10473;42.734;24.258;2023-04-01T10:21:31;3.43;;;2.40;;
20627;SDS011;10473;42.734;24.258;2023-04-01T10:24:25;2.57;;;1.53;;
20627;SDS011;10473;42.734;24.258;2023-04-01T10:33:55;2.27;;;1.53;;
20627;SDS011;10473;42.734;24.258;2023-04-01T10:36:48;2.10;;;1.20;;
20627;SDS011;10473;42.734;24.258;2023-04-01T10:46:03;1.10;;;0.60;;
20627;SDS011;10473;42.734;24.258;2023-04-01T10:56:09;3.00;;;1.17;;
20627;SDS011;10473;42.734;24.258;2023-04-01T10:59:15;1.53;;;1.20;;
20627;SDS011;10473;42.734;24.258;2023-04-01T11:21:42;0.80;;;0.60;;
20627;SDS011;10473;42.734;24.258;2023-04-01T11:24:42;1.37;;;0.80;;
20627;SDS011;10473;42.734;24.258;2023-04-01T11:27:55;0.80;;;0.70;;
20627;SDS011;10473;42.734;24.258;2023-04-01T11:30:49;1.97;;;1.10;;
20627;SDS011;10473;42.734;24.258;2023-04-01T11:33:29;2.13;;;1.13;;
20627;SDS011;10473;42.734;24.258;2023-04-01T11:36:11;1.63;;;1.43;;
20627;SDS011;10473;42.734;24.258;2023-04-01T11:38:54;1.23;;;1.10;;
20627;SDS011;10473;42.734;24.258;2023-04-01T11:41:45;1.90;;;1.27;;
20627;SDS011;10473;42.734;24.258;2023-04-01T11:44:40;1.33;;;1.23;;
20627;SDS011;10473;42.734;24.258;2023-04-01T11:47:45;1.57;;;1.20;;
20627;SDS011;10473;42.734;24.258;2023-04-01T11:50:26;1.13;;;0.97;;
20627;SDS011;10473;42.734;24.258;2023-04-01T11:53:11;4.10;;;3.00;;
20627;SDS011;10473;42.734;24.258;2023-04-01T11:55:52;4.37;;;3.17;;
20627;SDS011;10473;42.734;24.258;2023-04-01T12:01:37;2.17;;;1.40;;
20627;SDS011;10473;42.734;24.258;2023-04-01T12:04:27;3.97;;;2.53;;
20627;SDS011;10473;42.734;24.258;2023-04-01T12:07:25;1.97;;;0.87;;
20627;SDS011;10473;42.734;24.258;2023-04-01T12:10:05;2.47;;;1.27;;
20627;SDS011;10473;42.734;24.258;2023-04-01T12:12:46;4.60;;;1.50;;
20627;SDS011;10473;42.734;24.258;2023-04-01T12:15:20;1.53;;;0.97;;
20627;SDS011;10473;42.734;24.258;2023-04-01T12:17:55;1.60;;;1.07;;
20627;SDS011;10473;42.734;24.258;2023-04-01T12:20:35;2.93;;;1.83;;
20627;SDS011;10473;42.734;24.258;2023-04-01T12:23:13;2.93;;;1.60;;
20627;SDS011;10473;42.734;24.258;2023-04-01T12:25:59;3.07;;;1.57;;
20627;SDS011;10473;42.734;24.258;2023-04-01T12:28:41;2.53;;;1.50;;
20627;SDS011;10473;42.734;24.258;2023-04-01T12:31:26;1.33;;;1.13;;
20627;SDS011;10473;42.734;24.258;2023-04-01T12:37:07;4.10;;;1.70;;
20627;SDS011;10473;42.734;24.258;2023-04-01T12:42:57;2.00;;;1.63;;
20627;SDS011;10473;42.734;24.258;2023-04-01T12:45:38;3.83;;;1.73;;
20627;SDS011;10473;42.734;24.258;2023-04-01T12:48:23;2.87;;;1.30;;
20627;SDS011;10473;42.734;24.258;2023-04-01T12:57:22;2.57;;;1.37;;
20627;SDS011;10473;42.734;24.258;2023-04-01T13:00:18;2.07;;;1.20;;
20627;SDS011;10473;42.734;24.258;2023-04-01T13:03:02;1.37;;;1.10;;
20627;SDS011;10473;42.734;24.258;2023-04-01T13:08:51;1.97;;;1.73;;
20627;SDS011;10473;42.734;24.258;2023-04-01T13:11:30;2.97;;;1.77;;
20627;SDS011;10473;42.734;24.258;2023-04-01T13:14:16;1.43;;;1.20;;
20627;SDS011;10473;42.734;24.258;2023-04-01T13:17:02;8.53;;;3.63;;
20627;SDS011;10473;42.734;24.258;2023-04-01T13:19:39;2.50;;;1.23;;
20627;SDS011;10473;42.734;24.258;2023-04-01T13:22:15;2.60;;;1.30;;
20627;SDS011;10473;42.734;24.258;2023-04-01T13:24:50;1.00;;;0.90;;
20627;SDS011;10473;42.734;24.258;2023-04-01T13:30:47;4.57;;;3.00;;
20627;SDS011;10473;42.734;24.258;2023-04-01T13:33:24;2.40;;;2.03;;
20627;SDS011;10473;42.734;24.258;2023-04-01T13:36:01;3.27;;;2.10;;
20627;SDS011;10473;42.734;24.258;2023-04-01T13:41:41;4.60;;;3.43;;
20627;SDS011;10473;42.734;24.258;2023-04-01T13:44:40;3.23;;;2.67;;
20627;SDS011;10473;42.734;24.258;2023-04-01T13:47:21;2.90;;;1.33;;
20627;SDS011;10473;42.734;24.258;2023-04-01T13:50:17;1.00;;;0.60;;
20627;SDS011;10473;42.734;24.258;2023-04-01T13:53:18;1.63;;;1.00;;
20627;SDS011;10473;42.734;24.258;2023-04-01T13:56:03;1.03;;;0.80;;
20627;SDS011;10473;42.734;24.258;2023-04-01T14:19:24;9.13;;;4.70;;
20627;SDS011;10473;42.734;24.258;2023-04-01T14:22:02;18.27;;;7.20;;
20627;SDS011;10473;42.734;24.258;2023-04-01T14:24:52;15.83;;;6.77;;
20627;SDS011;10473;42.734;24.258;2023-04-01T14:27:48;5.27;;;3.03;;
20627;SDS011;10473;42.734;24.258;2023-04-01T14:30:56;7.50;;;4.53;;
20627;SDS011;10473;42.734;24.258;2023-04-01T14:33:41;6.67;;;4.17;;
20627;SDS011;10473;42.734;24.258;2023-04-01T14:36:28;3.33;;;2.33;;
20627;SDS011;10473;42.734;24.258;2023-04-01T14:39:49;2.27;;;2.00;;
20627;SDS011;10473;42.734;24.258;2023-04-01T14:50:24;2.17;;;1.97;;
20627;SDS011;10473;42.734;24.258;2023-04-01T14:52:57;11.10;;;9.77;;
20627;SDS011;10473;42.734;24.258;2023-04-01T14:55:42;2.83;;;2.20;;
20627;SDS011;10473;42.734;24.258;2023-04-01T14:58:17;1.67;;;1.07;;
20627;SDS011;10473;42.734;24.258;2023-04-01T15:00:48;6.73;;;5.00;;
20627;SDS011;10473;42.734;24.258;2023-04-01T15:03:36;2.10;;;1.90;;
20627;SDS011;10473;42.734;24.258;2023-04-01T15:06:21;0.70;;;0.60;;
20627;SDS011;10473;42.734;24.258;2023-04-01T15:09:14;0.57;;;0.53;;
20627;SDS011;10473;42.734;24.258;2023-04-01T15:11:54;1.77;;;0.90;;
20627;SDS011;10473;42.734;24.258;2023-04-01T15:14:33;24.67;;;15.57;;
20627;SDS011;10473;42.734;24.258;2023-04-01T15:17:51;15.83;;;11.10;;
20627;SDS011;10473;42.734;24.258;2023-04-01T15:20:47;2.57;;;2.37;;
20627;SDS011;10473;42.734;24.258;2023-04-01T15:23:25;15.33;;;11.70;;
20627;SDS011;10473;42.734;24.258;2023-04-01T15:28:58;0.70;;;0.70;;
20627;SDS011;10473;42.734;24.258;2023-04-01T15:31:38;1.77;;;1.03;;
20627;SDS011;10473;42.734;24.258;2023-04-01T15:34:20;1.73;;;1.40;;
20627;SDS011;10473;42.734;24.258;2023-04-01T15:36:56;3.23;;;2.00;;
20627;SDS011;10473;42.734;24.258;2023-04-01T15:39:35;5.77;;;2.90;;
20627;SDS011;10473;42.734;24.258;2023-04-01T15:42:18;2.93;;;2.03;;
20627;SDS011;10473;42.734;24.258;2023-04-01T15:45:00;4.30;;;2.97;;
20627;SDS011;10473;42.734;24.258;2023-04-01T15:47:37;2.30;;;2.10;;
20627;SDS011;10473;42.734;24.258;2023-04-01T15:50:23;4.37;;;2.67;;
20627;SDS011;10473;42.734;24.258;2023-04-01T15:53:03;3.03;;;1.93;;
20627;SDS011;10473;42.734;24.258;2023-04-01T15:55:53;2.30;;;1.77;;
20627;SDS011;10473;42.734;24.258;2023-04-01T15:58:34;3.93;;;2.30;;
20627;SDS011;10473;42.734;24.258;2023-04-01T16:01:15;4.87;;;3.30;;
20627;SDS011;10473;42.734;24.258;2023-04-01T16:03:54;2.77;;;1.77;;
20627;SDS011;10473;42.734;24.258;2023-04-01T16:12:18;11.27;;;4.73;;
20627;SDS011;10473;42.734;24.258;2023-04-01T16:14:58;20.40;;;10.07;;
20627;SDS011;10473;42.734;24.258;2023-04-01T16:17:54;9.83;;;6.67;;
20627;SDS011;10473;42.734;24.258;2023-04-01T16:20:40;8.37;;;4.23;;
20627;SDS011;10473;42.734;24.258;2023-04-01T16:23:17;15.77;;;9.13;;
20627;SDS011;10473;42.734;24.258;2023-04-01T16:25:51;9.60;;;6.87;;
20627;SDS011;10473;42.734;24.258;2023-04-01T16:28:27;9.93;;;6.60;;
20627;SDS011;10473;42.734;24.258;2023-04-01T16:31:05;10.47;;;6.33;;
20627;SDS011;10473;42.734;24.258;2023-04-01T16:33:41;8.00;;;4.80;;
20627;SDS011;10473;42.734;24.258;2023-04-01T16:36:20;7.30;;;5.87;;
20627;SDS011;10473;42.734;24.258;2023-04-01T16:38:55;12.60;;;7.40;;
20627;SDS011;10473;42.734;24.258;2023-04-01T16:41:41;10.13;;;7.03;;
20627;SDS011;10473;42.734;24.258;2023-04-01T16:44:18;8.17;;;6.47;;
20627;SDS011;10473;42.734;24.258;2023-04-01T16:46:50;7.50;;;5.07;;
20627;SDS011;10473;42.734;24.258;2023-04-01T16:49:25;11.37;;;6.13;;
20627;SDS011;10473;42.734;24.258;2023-04-01T16:52:12;14.00;;;7.77;;
20627;SDS011;10473;42.734;24.258;2023-04-01T16:54:44;8.50;;;6.60;;
20627;SDS011;10473;42.734;24.258;2023-04-01T16:57:19;9.77;;;5.13;;
20627;SDS011;10473;42.734;24.258;2023-04-01T16:59:54;5.70;;;3.57;;
20627;SDS011;10473;42.734;24.258;2023-04-01T17:02:30;4.43;;;1.67;;
20627;SDS011;10473;42.734;24.258;2023-04-01T17:05:03;0.50;;;0.50;;
20627;SDS011;10473;42.734;24.258;2023-04-01T17:07:46;1.07;;;0.43;;
20627;SDS011;10473;42.734;24.258;2023-04-01T17:10:31;0.83;;;0.40;;
20627;SDS011;10473;42.734;24.258;2023-04-01T17:13:23;1.83;;;1.00;;
20627;SDS011;10473;42.734;24.258;2023-04-01T17:16:04;1.17;;;0.83;;
20627;SDS011;10473;42.734;24.258;2023-04-01T17:18:47;2.57;;;1.10;;
20627;SDS011;10473;42.734;24.258;2023-04-01T17:21:23;5.33;;;1.50;;
20627;SDS011;10473;42.734;24.258;2023-04-01T17:24:14;1.40;;;0.83;;
20627;SDS011;10473;42.734;24.258;2023-04-01T17:26:58;1.30;;;0.90;;
20627;SDS011;10473;42.734;24.258;2023-04-01T17:29:35;9.77;;;3.53;;
20627;SDS011;10473;42.734;24.258;2023-04-01T17:32:25;3.60;;;1.47;;
20627;SDS011;10473;42.734;24.258;2023-04-01T17:35:10;2.43;;;2.23;;
20627;SDS011;10473;42.734;24.258;2023-04-01T17:37:45;2.87;;;2.43;;
20627;SDS011;10473;42.734;24.258;2023-04-01T17:40:30;3.90;;;2.40;;
20627;SDS011;10473;42.734;24.258;2023-04-01T17:43:10;20.90;;;13.40;;
20627;SDS011;10473;42.734;24.258;2023-04-01T17:45:48;4.97;;;2.90;;
20627;SDS011;10473;42.734;24.258;2023-04-01T17:48:31;2.50;;;1.43;;
20627;SDS011;10473;42.734;24.258;2023-04-01T17:51:13;4.53;;;2.93;;
20627;SDS011;10473;42.734;24.258;2023-04-01T17:53:53;3.40;;;2.13;;
20627;SDS011;10473;42.734;24.258;2023-04-01T17:56:37;4.87;;;1.53;;
20627;SDS011;10473;42.734;24.258;2023-04-01T17:59:16;8.67;;;4.70;;